Time;durP1;ratioP1;P1;durP2;ratioP2;P2;SDS_P1;SDS_P2;PMS_P1;PMS_P2;Temp;Humidity;BMP_temperature;BMP_pressure;BME280_temperature;BME280_humidity;BME280_pressure;Samples;Min_cycle;Max_cycle;Signal;HPM_P1;HPM_P2
2023/03/22 00:01:20;;;;;;;15.32;8.50;;;10.00;99.90;;;;;;5111046;28;20048;-63
2023/03/22 00:03:51;;;;;;;21.02;8.88;;;10.00;99.90;;;;;;5112284;28;20055;-64
2023/03/22 00:06:19;;;;;;;22.27;7.93;;;9.90;99.90;;;;;;5114246;28;20085;-63
2023/03/22 00:08:49;;;;;;;13.50;7.85;;;9.90;99.90;;;;;;5116383;28;20047;-62
2023/03/22 00:11:16;;;;;;;18.15;8.35;;;9.90;99.90;;;;;;5114507;28;20050;-63
2023/03/22 00:13:45;;;;;;;13.85;7.82;;;9.90;99.90;;;;;;5116726;28;20050;-63
2023/03/22 00:16:13;;;;;;;14.63;8.02;;;9.90;99.90;;;;;;5113103;28;20476;-63
2023/03/22 00:18:40;;;;;;;11.63;7.55;;;9.90;99.90;;;;;;5114555;28;20051;-63
2023/03/22 00:21:12;;;;;;;13.98;7.38;;;9.90;99.90;;;;;;5114984;28;20051;-64
2023/03/22 00:23:39;;;;;;;16.33;7.75;;;9.80;99.90;;;;;;5116160;28;20107;-63
2023/03/22 00:26:07;;;;;;;10.93;6.15;;;9.80;99.90;;;;;;5115506;28;20050;-63
2023/03/22 00:28:34;;;;;;;12.00;6.45;;;9.80;99.90;;;;;;5112754;28;20491;-63
2023/03/22 00:31:02;;;;;;;12.18;7.30;;;9.80;99.90;;;;;;5116106;28;20036;-63
2023/03/22 00:33:30;;;;;;;15.65;6.90;;;9.80;99.90;;;;;;5113529;28;20126;-63
2023/03/22 00:35:59;;;;;;;17.10;6.53;;;9.70;99.90;;;;;;5114442;28;20059;-63
2023/03/22 00:38:35;;;;;;;12.38;5.78;;;9.80;99.90;;;;;;5115779;28;20453;-63
2023/03/22 00:41:06;;;;;;;13.13;5.97;;;9.80;99.90;;;;;;5114182;28;20468;-62
2023/03/22 00:43:33;;;;;;;;;;;9.70;99.90;;;;;;5114414;28;20040;-63
2023/03/22 00:46:00;;;;;;;14.07;5.78;;;9.70;99.90;;;;;;5115483;28;19919;-62
2023/03/22 00:48:26;;;;;;;11.80;5.13;;;9.70;99.90;;;;;;5112391;28;20051;-62
2023/03/22 00:50:53;;;;;;;12.38;5.57;;;9.70;99.90;;;;;;5115649;28;20047;-62
2023/03/22 00:53:20;;;;;;;10.77;5.32;;;9.70;99.90;;;;;;5115242;28;20044;-63
2023/03/22 00:55:49;;;;;;;11.50;5.38;;;9.70;99.90;;;;;;5115660;28;20043;-63
2023/03/22 00:58:16;;;;;;;14.93;5.80;;;9.60;99.90;;;;;;5115647;28;20407;-64
2023/03/22 01:00:43;;;;;;;9.50;5.35;;;9.60;99.90;;;;;;5114829;28;20044;-63
2023/03/22 01:03:13;;;;;;;8.63;4.55;;;9.60;99.90;;;;;;5112204;28;20047;-63
2023/03/22 01:05:40;;;;;;;11.27;4.55;;;9.70;99.90;;;;;;5115161;28;20055;-63
2023/03/22 01:08:08;;;;;;;8.95;4.93;;;9.60;99.90;;;;;;5113788;28;20043;-62
2023/03/22 01:10:35;;;;;;;12.30;4.70;;;9.50;99.90;;;;;;5114177;28;20468;-63
2023/03/22 01:13:04;;;;;;;10.35;3.88;;;9.50;99.90;;;;;;5115295;28;20463;-64
2023/03/22 01:15:31;;;;;;;11.07;4.45;;;9.50;99.90;;;;;;5113525;28;20063;-64
2023/03/22 01:17:58;;;;;;;6.75;3.92;;;9.50;99.90;;;;;;5113926;28;20441;-64
2023/03/22 01:20:25;;;;;;;10.57;4.22;;;9.50;99.90;;;;;;5113915;28;20491;-63
2023/03/22 01:22:52;;;;;;;8.68;3.85;;;9.50;99.90;;;;;;5113622;28;20051;-64
2023/03/22 01:25:19;;;;;;;9.60;3.63;;;9.50;99.90;;;;;;5113883;28;20048;-64
2023/03/22 01:27:46;;;;;;;13.10;3.88;;;9.50;99.90;;;;;;5115209;28;20105;-62
2023/03/22 01:30:15;;;;;;;7.40;2.97;;;9.50;99.90;;;;;;5113373;28;20446;-64
2023/03/22 01:32:42;;;;;;;6.35;3.10;;;9.50;99.90;;;;;;5113936;28;20107;-63
2023/03/22 01:35:10;;;;;;;9.25;3.63;;;9.40;99.90;;;;;;5114722;28;20048;-63
2023/03/22 01:37:36;;;;;;;8.93;3.42;;;9.50;99.90;;;;;;5113189;28;20098;-64
2023/03/22 01:40:04;;;;;;;8.20;3.08;;;9.40;99.90;;;;;;5113298;28;20051;-63
2023/03/22 01:42:31;;;;;;;8.82;2.78;;;9.40;99.90;;;;;;5112767;28;20100;-63
2023/03/22 01:45:36;;;;;;;9.00;3.03;;;9.50;99.90;;;;;;5114559;27;20453;-63
2023/03/22 01:48:08;;;;;;;5.30;2.50;;;9.40;99.90;;;;;;5035446;28;20049;-63
2023/03/22 01:50:37;;;;;;;6.60;2.60;;;9.30;99.90;;;;;;5049438;28;20566;-63
2023/03/22 01:53:05;;;;;;;12.32;2.63;;;9.30;99.90;;;;;;5084850;27;20051;-63
2023/03/22 01:55:33;;;;;;;9.52;2.58;;;9.30;99.90;;;;;;5114630;28;20047;-62
2023/03/22 01:58:01;;;;;;;7.57;3.00;;;9.40;99.90;;;;;;5112577;28;20441;-62
2023/03/22 02:00:28;;;;;;;5.97;2.38;;;9.30;99.90;;;;;;5113080;28;20051;-63
2023/03/22 02:02:56;;;;;;;8.73;2.47;;;9.30;99.90;;;;;;5111064;28;20051;-63
2023/03/22 02:05:25;;;;;;;5.30;2.38;;;9.30;99.90;;;;;;5112550;28;20070;-63
2023/03/22 02:07:52;;;;;;;9.38;2.63;;;9.30;99.90;;;;;;5112768;28;20497;-64
2023/03/22 02:10:23;;;;;;;6.75;2.00;;;9.30;99.90;;;;;;5114121;28;20400;-63
2023/03/22 02:13:10;;;;;;;8.50;2.55;;;9.30;99.90;;;;;;5114047;28;20051;-63
2023/03/22 02:15:45;;;;;;;7.88;2.65;;;9.30;99.90;;;;;;5112173;28;20052;-63
2023/03/22 02:18:32;;;;;;;8.90;2.35;;;9.20;99.90;;;;;;5113023;28;20058;-64
2023/03/22 02:21:18;;;;;;;8.95;2.63;;;9.20;99.90;;;;;;5112354;28;20063;-62
2023/03/22 02:24:22;;;;;;;5.90;1.90;;;9.20;99.90;;;;;;5111477;28;20043;-63
2023/03/22 02:27:23;;;;;;;5.13;2.00;;;9.20;99.90;;;;;;5110205;28;20160;-63
2023/03/22 02:30:05;;;;;;;8.45;2.30;;;9.20;99.90;;;;;;5111881;28;20458;-64
2023/03/22 02:33:11;;;;;;;7.13;2.10;;;9.30;99.90;;;;;;5112999;28;20044;-64
2023/03/22 02:35:46;;;;;;;6.78;2.72;;;9.30;99.90;;;;;;5100873;28;20495;-63
2023/03/22 02:38:58;;;;;;;6.88;1.77;;;9.30;99.90;;;;;;5113683;28;20052;-62
2023/03/22 02:41:34;;;;;;;9.32;2.40;;;9.30;99.90;;;;;;5113432;28;20059;-64
2023/03/22 02:44:08;;;;;;;6.60;1.58;;;9.30;99.90;;;;;;5113530;28;20039;-63
2023/03/22 02:46:40;;;;;;;7.10;2.15;;;9.30;99.90;;;;;;5111785;28;20047;-62
2023/03/22 02:49:16;;;;;;;6.75;1.83;;;9.30;99.90;;;;;;5112096;28;20055;-63
2023/03/22 02:51:45;;;;;;;5.32;2.17;;;9.40;99.90;;;;;;5113548;28;20047;-63
2023/03/22 02:54:18;;;;;;;9.10;2.00;;;9.40;99.90;;;;;;5112894;28;20043;-63
2023/03/22 02:56:51;;;;;;;9.10;2.38;;;9.40;99.90;;;;;;5110594;28;20075;-62
2023/03/22 02:59:21;;;;;;;5.85;2.47;;;9.40;99.90;;;;;;5109968;28;20051;-64
2023/03/22 03:01:51;;;;;;;10.77;2.53;;;9.40;99.90;;;;;;5112481;28;20040;-64
2023/03/22 03:04:21;;;;;;;7.07;1.77;;;9.50;99.90;;;;;;5111925;28;20051;-62
2023/03/22 03:06:51;;;;;;;7.93;1.90;;;9.50;99.90;;;;;;5110398;28;20059;-63
2023/03/22 03:09:19;;;;;;;8.25;2.13;;;9.50;99.90;;;;;;5111664;28;20059;-63
2023/03/22 03:11:50;;;;;;;5.03;1.92;;;9.50;99.90;;;;;;5113172;28;20039;-63
2023/03/22 03:14:22;;;;;;;5.18;2.15;;;9.50;99.90;;;;;;5112230;28;20491;-63
2023/03/22 03:16:58;;;;;;;7.78;2.20;;;9.50;99.90;;;;;;5112800;28;20055;-62
2023/03/22 03:19:32;;;;;;;6.57;2.00;;;9.50;99.90;;;;;;5111604;28;20165;-63
2023/03/22 03:22:07;;;;;;;11.05;3.20;;;9.50;99.90;;;;;;5110977;28;20036;-63
2023/03/22 03:24:39;;;;;;;6.35;2.53;;;9.50;99.90;;;;;;5111733;28;20079;-63
2023/03/22 03:27:15;;;;;;;8.27;1.85;;;9.50;99.90;;;;;;5111526;28;20106;-63
2023/03/22 03:29:49;;;;;;;9.90;2.60;;;9.50;99.90;;;;;;5111072;28;20043;-62
2023/03/22 03:32:20;;;;;;;7.97;2.40;;;9.60;99.90;;;;;;5110276;28;20483;-63
2023/03/22 03:34:51;;;;;;;6.93;2.30;;;9.60;99.90;;;;;;5110357;28;20051;-63
2023/03/22 03:37:22;;;;;;;11.93;2.70;;;9.60;99.90;;;;;;5111670;28;20139;-64
2023/03/22 03:39:54;;;;;;;7.22;2.30;;;9.60;99.90;;;;;;5111356;28;20402;-63
2023/03/22 03:42:26;;;;;;;10.10;2.83;;;9.50;99.90;;;;;;5110736;28;20044;-63
2023/03/22 03:44:53;;;;;;;12.65;3.17;;;9.50;99.90;;;;;;5110402;28;20084;-64
2023/03/22 03:47:21;;;;;;;8.13;2.22;;;9.50;99.90;;;;;;5111227;28;20048;-63
2023/03/22 03:49:48;;;;;;;8.45;2.33;;;9.50;99.90;;;;;;5109720;28;20040;-63
2023/03/22 03:52:15;;;;;;;8.85;2.70;;;9.50;99.90;;;;;;5111216;28;20085;-63
2023/03/22 03:54:42;;;;;;;10.73;2.50;;;9.50;99.90;;;;;;5112258;28;20044;-63
2023/03/22 03:57:09;;;;;;;8.40;2.72;;;9.50;99.90;;;;;;5111832;28;20075;-63
2023/03/22 03:59:37;;;;;;;10.95;2.70;;;9.50;99.90;;;;;;5112221;28;20044;-63
2023/03/22 04:02:04;;;;;;;14.77;2.60;;;9.50;99.90;;;;;;5112192;28;20051;-63
2023/03/22 04:04:33;;;;;;;9.20;2.60;;;9.50;99.90;;;;;;5110797;28;20044;-63
2023/03/22 04:07:02;;;;;;;9.13;2.42;;;9.50;99.90;;;;;;5110892;28;20051;-63
2023/03/22 04:09:30;;;;;;;10.23;2.25;;;9.50;99.90;;;;;;5112351;28;20048;-63
2023/03/22 04:11:58;;;;;;;8.38;2.35;;;9.50;99.90;;;;;;5110780;28;20047;-64
2023/03/22 04:14:26;;;;;;;8.07;2.85;;;9.50;99.90;;;;;;5112418;28;20059;-63
2023/03/22 04:16:54;;;;;;;9.38;2.35;;;9.50;99.90;;;;;;5112274;28;20051;-64
2023/03/22 04:19:23;;;;;;;9.93;2.70;;;9.50;99.90;;;;;;5110424;28;20702;-65
2023/03/22 04:21:51;;;;;;;9.50;3.08;;;9.50;99.90;;;;;;5101253;28;20499;-62
2023/03/22 04:24:19;;;;;;;5.70;2.45;;;9.50;99.90;;;;;;5108951;28;20059;-62
2023/03/22 04:26:46;;;;;;;6.72;2.08;;;9.50;99.90;;;;;;5108816;28;20377;-63
2023/03/22 04:29:13;;;;;;;10.30;2.58;;;9.50;99.90;;;;;;5107772;28;20044;-63
2023/03/22 04:31:40;;;;;;;7.90;2.47;;;9.50;99.90;;;;;;5108038;28;20043;-63
2023/03/22 04:34:08;;;;;;;7.53;2.35;;;9.60;99.90;;;;;;5109479;28;20552;-63
2023/03/22 04:36:38;;;;;;;7.00;2.58;;;9.60;99.90;;;;;;5108739;28;20491;-64
2023/03/22 04:39:07;;;;;;;8.60;2.90;;;9.50;99.90;;;;;;5108273;28;20047;-62
2023/03/22 04:41:34;;;;;;;9.57;2.88;;;9.50;99.90;;;;;;5104911;28;20127;-64
2023/03/22 04:44:02;;;;;;;8.68;2.75;;;9.50;99.90;;;;;;5104009;28;20043;-63
2023/03/22 04:46:29;;;;;;;7.07;2.67;;;9.60;99.90;;;;;;5106909;28;20146;-63
2023/03/22 04:48:56;;;;;;;7.28;3.05;;;9.50;99.90;;;;;;5107248;28;20098;-63
2023/03/22 04:51:26;;;;;;;6.68;3.00;;;9.50;99.90;;;;;;5107002;28;20051;-62
2023/03/22 04:53:53;;;;;;;11.20;3.13;;;9.50;99.90;;;;;;5111313;28;20044;-64
2023/03/22 04:56:20;;;;;;;7.53;3.33;;;9.50;99.90;;;;;;5113092;28;20071;-63
2023/03/22 04:58:47;;;;;;;10.07;4.25;;;9.50;99.90;;;;;;5110248;28;20453;-63
2023/03/22 05:01:16;;;;;;;12.18;4.50;;;9.50;99.90;;;;;;5112437;28;20051;-63
2023/03/22 05:03:44;;;;;;;8.20;4.28;;;9.50;99.90;;;;;;5111230;28;20044;-64
2023/03/22 05:06:11;;;;;;;12.70;5.00;;;9.50;99.90;;;;;;5110359;28;20059;-63
2023/03/22 05:08:39;;;;;;;9.38;4.03;;;9.50;99.90;;;;;;5109390;28;20055;-63
2023/03/22 05:11:09;;;;;;;10.68;4.47;;;9.50;99.90;;;;;;5112089;28;20059;-63
2023/03/22 05:13:36;;;;;;;11.43;4.68;;;9.50;99.90;;;;;;5109826;28;20511;-62
2023/03/22 05:16:04;;;;;;;13.02;4.63;;;9.50;99.90;;;;;;5110985;28;20427;-63
2023/03/22 05:18:31;;;;;;;6.90;4.45;;;9.50;99.90;;;;;;5109667;28;20047;-63
2023/03/22 05:20:59;;;;;;;14.10;5.38;;;9.60;99.90;;;;;;5110567;28;20101;-63
2023/03/22 05:23:26;;;;;;;11.60;5.30;;;9.70;99.90;;;;;;5111217;28;20044;-63
2023/03/22 05:25:57;;;;;;;11.55;5.50;;;9.60;99.90;;;;;;5108016;28;20403;-63
2023/03/22 05:28:26;;;;;;;12.75;4.88;;;9.70;99.90;;;;;;5112677;28;20398;-62
2023/03/22 05:30:53;;;;;;;10.02;5.93;;;9.70;99.90;;;;;;5110507;28;20511;-62
2023/03/22 05:33:20;;;;;;;11.15;6.13;;;9.70;99.90;;;;;;5112183;28;20446;-63
2023/03/22 05:35:48;;;;;;;15.73;7.45;;;9.70;99.90;;;;;;5110598;28;20074;-62
2023/03/22 05:38:15;;;;;;;9.77;5.50;;;9.70;99.90;;;;;;5111843;28;20086;-62
2023/03/22 05:40:42;;;;;;;20.65;6.22;;;9.70;99.90;;;;;;5109835;28;20047;-62
2023/03/22 05:43:10;;;;;;;12.32;6.35;;;9.80;99.90;;;;;;5112020;28;20048;-62
2023/03/22 05:45:38;;;;;;;13.48;7.18;;;9.80;99.90;;;;;;5109460;28;20499;-62
2023/03/22 05:48:05;;;;;;;9.55;6.47;;;9.80;99.90;;;;;;5113698;28;20055;-62
2023/03/22 05:50:32;;;;;;;10.65;6.25;;;9.80;99.90;;;;;;5103671;28;20052;-63
2023/03/22 05:53:00;;;;;;;11.02;6.47;;;9.80;99.90;;;;;;5107876;28;20052;-62
2023/03/22 05:55:29;;;;;;;15.77;6.97;;;9.80;99.90;;;;;;5109301;28;20078;-63
2023/03/22 05:57:55;;;;;;;13.55;7.18;;;9.90;99.90;;;;;;5111701;28;20044;-64
2023/03/22 06:00:24;;;;;;;14.98;6.30;;;9.90;99.90;;;;;;5112663;28;20048;-63
2023/03/22 06:02:55;;;;;;;11.80;7.45;;;9.90;99.90;;;;;;5109146;28;20047;-64
2023/03/22 06:05:23;;;;;;;14.50;7.60;;;9.80;99.90;;;;;;5113240;28;20075;-64
2023/03/22 06:07:50;;;;;;;15.85;7.55;;;9.80;99.90;;;;;;5112324;28;20051;-64
2023/03/22 06:10:17;;;;;;;15.48;7.38;;;9.90;99.90;;;;;;5102542;28;20076;-64
2023/03/22 06:12:44;;;;;;;11.95;7.40;;;9.90;99.90;;;;;;5111743;28;20043;-64
2023/03/22 06:15:12;;;;;;;12.45;7.63;;;9.80;99.90;;;;;;5113345;28;20079;-64
2023/03/22 06:17:40;;;;;;;12.40;6.75;;;9.80;99.90;;;;;;5107331;28;20040;-64
2023/03/22 06:20:10;;;;;;;16.35;7.95;;;9.90;99.90;;;;;;5113058;28;20039;-63
2023/03/22 06:22:37;;;;;;;10.65;6.88;;;9.90;99.90;;;;;;5111924;28;20040;-63
2023/03/22 06:25:05;;;;;;;12.63;7.03;;;10.00;99.90;;;;;;5112491;28;20048;-64
2023/03/22 06:27:32;;;;;;;14.40;7.45;;;10.00;99.90;;;;;;5110099;28;20061;-63
2023/03/22 06:29:59;;;;;;;15.60;8.48;;;10.00;99.90;;;;;;5108676;28;20043;-64
2023/03/22 06:32:27;;;;;;;18.08;8.55;;;10.00;99.90;;;;;;5112610;28;20048;-65
2023/03/22 06:34:56;;;;;;;15.30;7.28;;;10.10;99.90;;;;;;5112621;28;20051;-64
2023/03/22 06:37:23;;;;;;;15.77;7.78;;;10.00;99.90;;;;;;5113757;28;20046;-63
2023/03/22 06:39:51;;;;;;;12.90;6.97;;;10.10;99.90;;;;;;5111767;28;20055;-63
2023/03/22 06:42:18;;;;;;;14.80;7.88;;;10.10;99.90;;;;;;5113554;28;20039;-63
2023/03/22 06:44:45;;;;;;;11.73;7.45;;;10.10;99.90;;;;;;5112088;28;20050;-62
2023/03/22 06:47:12;;;;;;;16.35;8.68;;;10.10;99.90;;;;;;5112071;28;20055;-63
2023/03/22 06:49:39;;;;;;;14.27;7.57;;;10.10;99.90;;;;;;5113432;28;20051;-63
2023/03/22 06:52:08;;;;;;;12.90;8.93;;;10.20;99.90;;;;;;5112589;28;20771;-63
2023/03/22 06:54:35;;;;;;;13.25;8.13;;;10.30;99.90;;;;;;5112312;28;20047;-63
2023/03/22 06:57:02;;;;;;;16.33;7.90;;;10.30;99.90;;;;;;5113133;28;20051;-64
2023/03/22 06:59:29;;;;;;;13.65;7.28;;;10.40;99.90;;;;;;5112534;28;20043;-62
2023/03/22 07:01:56;;;;;;;14.45;7.35;;;10.40;99.90;;;;;;5113105;28;20044;-62
2023/03/22 07:04:22;;;;;;;9.93;6.50;;;10.50;99.90;;;;;;5111882;28;20047;-63
2023/03/22 07:06:49;;;;;;;13.95;8.13;;;10.60;99.90;;;;;;5112399;28;20058;-63
2023/03/22 07:09:18;;;;;;;12.13;7.57;;;10.70;99.90;;;;;;5112649;28;20047;-64
2023/03/22 07:11:45;;;;;;;17.77;8.25;;;10.80;99.90;;;;;;5111833;28;20051;-62
2023/03/22 07:14:12;;;;;;;15.43;7.45;;;10.90;99.90;;;;;;5108725;28;20051;-62
2023/03/22 07:16:38;;;;;;;10.80;6.53;;;10.90;99.90;;;;;;5113050;28;20055;-63
2023/03/22 07:19:05;;;;;;;11.43;6.93;;;10.90;99.90;;;;;;5112858;28;20415;-64
2023/03/22 07:21:32;;;;;;;15.57;7.25;;;10.90;99.90;;;;;;5111067;28;20047;-63
2023/03/22 07:23:59;;;;;;;20.00;7.38;;;10.90;99.90;;;;;;5112822;28;20044;-63
2023/03/22 07:26:29;;;;;;;13.35;7.75;;;10.90;99.90;;;;;;5112668;28;20043;-63
2023/03/22 07:28:56;;;;;;;12.40;6.63;;;10.90;99.90;;;;;;5111047;28;20434;-63
2023/03/22 07:31:23;;;;;;;16.75;8.07;;;10.90;99.90;;;;;;5112793;28;20043;-63
2023/03/22 07:33:50;;;;;;;11.30;6.97;;;10.90;99.90;;;;;;5111662;28;20085;-63
2023/03/22 07:36:22;;;;;;;12.13;6.63;;;10.90;99.90;;;;;;5112089;28;20044;-63
2023/03/22 07:38:50;;;;;;;12.82;6.88;;;10.90;99.90;;;;;;5111587;28;20508;-63
2023/03/22 07:41:17;;;;;;;15.05;7.55;;;10.90;99.90;;;;;;5111915;28;20473;-63
2023/03/22 07:43:45;;;;;;;14.00;6.82;;;10.90;99.90;;;;;;5110489;28;20104;-63
2023/03/22 07:46:12;;;;;;;12.68;6.68;;;10.90;99.90;;;;;;5112543;28;20043;-62
2023/03/22 07:48:39;;;;;;;16.20;6.97;;;10.90;99.90;;;;;;5110984;28;20052;-64
2023/03/22 07:51:07;;;;;;;13.50;7.50;;;10.90;99.90;;;;;;5111352;28;20070;-62
2023/03/22 07:53:35;;;;;;;10.98;5.85;;;10.90;99.90;;;;;;5112507;28;20384;-63
2023/03/22 07:56:03;;;;;;;11.02;5.18;;;10.80;99.90;;;;;;5111950;28;20044;-64
2023/03/22 07:58:30;;;;;;;10.32;6.32;;;10.80;99.90;;;;;;5112328;28;20080;-63
2023/03/22 08:01:03;;;;;;;11.63;6.03;;;10.90;99.90;;;;;;5110315;28;20105;-63
2023/03/22 08:03:30;;;;;;;11.82;5.72;;;11.10;99.90;;;;;;5110631;28;20071;-62
2023/03/22 08:06:03;;;;;;;13.38;6.78;;;11.30;99.90;;;;;;5112219;28;20071;-62
2023/03/22 08:08:30;;;;;;;11.52;6.32;;;11.40;99.90;;;;;;5110625;28;20082;-63
2023/03/22 08:10:57;;;;;;;11.48;5.25;;;11.60;99.90;;;;;;5110557;28;20100;-65
2023/03/22 08:13:24;;;;;;;12.43;5.25;;;11.60;99.90;;;;;;5112236;28;20073;-63
2023/03/22 08:15:51;;;;;;;12.95;6.80;;;11.60;99.90;;;;;;5110087;28;20059;-62
2023/03/22 08:18:20;;;;;;;9.48;5.25;;;11.50;99.90;;;;;;5111558;28;20043;-63
2023/03/22 08:20:47;;;;;;;9.30;5.72;;;11.40;99.90;;;;;;5112132;28;20484;-63
2023/03/22 08:23:14;;;;;;;13.02;5.95;;;11.40;99.90;;;;;;5111647;28;20043;-63
2023/03/22 08:25:42;;;;;;;12.02;5.70;;;11.30;99.90;;;;;;5112470;28;20091;-63
2023/03/22 08:28:09;;;;;;;12.07;5.78;;;11.30;99.90;;;;;;5115494;28;20075;-62
2023/03/22 08:30:37;;;;;;;12.35;5.43;;;11.40;99.90;;;;;;5114642;28;20419;-63
2023/03/22 08:33:05;;;;;;;11.10;5.93;;;11.40;99.90;;;;;;5112675;28;20074;-63
2023/03/22 08:35:34;;;;;;;13.13;5.95;;;11.50;99.90;;;;;;5116007;28;20143;-63
2023/03/22 08:38:01;;;;;;;16.25;5.30;;;11.50;99.90;;;;;;5114382;28;20488;-63
2023/03/22 08:40:28;;;;;;;10.40;5.55;;;11.60;99.90;;;;;;5116073;28;20050;-65
2023/03/22 08:42:55;;;;;;;9.18;5.25;;;11.60;99.90;;;;;;5115916;28;20048;-64
2023/03/22 08:45:22;;;;;;;11.07;5.05;;;11.70;99.90;;;;;;5114408;28;20403;-63
2023/03/22 08:47:49;;;;;;;13.05;6.00;;;11.70;99.90;;;;;;5114289;28;20048;-63
2023/03/22 08:50:16;;;;;;;13.18;4.88;;;11.70;99.90;;;;;;5114828;28;20047;-63
2023/03/22 08:52:44;;;;;;;11.63;5.10;;;11.70;99.90;;;;;;5115285;28;20444;-63
2023/03/22 08:55:13;;;;;;;8.93;4.60;;;11.70;99.90;;;;;;5114781;28;20147;-63
2023/03/22 08:57:40;;;;;;;11.30;4.85;;;11.90;99.90;;;;;;5115206;28;20134;-63
2023/03/22 09:00:09;;;;;;;10.27;4.40;;;11.90;99.90;;;;;;5114007;28;20089;-63
2023/03/22 09:02:37;;;;;;;7.85;4.03;;;12.00;99.90;;;;;;5115551;27;20384;-63
2023/03/22 09:05:04;;;;;;;10.07;5.03;;;12.00;99.90;;;;;;5115553;28;20044;-63
2023/03/22 09:07:31;;;;;;;8.02;4.50;;;12.00;99.90;;;;;;5113237;28;20062;-65
2023/03/22 09:09:59;;;;;;;11.52;4.90;;;12.00;99.90;;;;;;5113335;28;20398;-62
2023/03/22 09:12:26;;;;;;;8.82;4.13;;;11.90;99.90;;;;;;5115017;28;20051;-63
2023/03/22 09:14:53;;;;;;;8.45;4.53;;;11.80;99.90;;;;;;5115351;28;20126;-63
2023/03/22 09:17:20;;;;;;;15.50;5.43;;;11.70;99.90;;;;;;5114314;28;20069;-62
2023/03/22 09:19:47;;;;;;;11.50;5.55;;;11.60;99.90;;;;;;5114686;28;20748;-63
2023/03/22 09:22:14;;;;;;;7.03;4.55;;;11.60;99.90;;;;;;5115054;28;20470;-64
2023/03/22 09:24:41;;;;;;;10.25;4.72;;;11.60;99.90;;;;;;5114005;28;20093;-63
2023/03/22 09:27:09;;;;;;;11.27;4.53;;;11.70;99.90;;;;;;5113046;28;20499;-62
2023/03/22 09:29:36;;;;;;;11.05;4.28;;;11.70;99.90;;;;;;5115007;28;20055;-62
2023/03/22 09:32:03;;;;;;;10.43;4.25;;;11.70;99.90;;;;;;5115144;28;20047;-63
2023/03/22 09:34:30;;;;;;;10.05;4.18;;;11.80;99.90;;;;;;5114505;28;20398;-63
2023/03/22 09:37:01;;;;;;;13.02;4.90;;;11.70;99.90;;;;;;5113971;28;20047;-63
2023/03/22 09:39:28;;;;;;;11.20;4.50;;;11.70;99.90;;;;;;5114829;28;20138;-63
2023/03/22 09:42:00;;;;;;;10.68;4.25;;;11.60;99.90;;;;;;5114210;27;20086;-63
2023/03/22 09:44:33;;;;;;;9.05;4.28;;;11.50;99.90;;;;;;5114951;28;20043;-63
2023/03/22 09:47:04;;;;;;;6.75;3.60;;;11.50;99.90;;;;;;5113304;28;20043;-62
2023/03/22 09:49:39;;;;;;;7.32;3.80;;;11.40;99.90;;;;;;5112964;28;20054;-62
2023/03/22 09:52:11;;;;;;;6.82;4.03;;;11.40;99.90;;;;;;5111240;28;20047;-62
2023/03/22 09:54:41;;;;;;;13.60;5.05;;;11.30;99.90;;;;;;5114204;28;20043;-63
2023/03/22 09:57:14;;;;;;;11.38;4.10;;;11.30;99.90;;;;;;5114713;28;20051;-63
2023/03/22 09:59:52;;;;;;;8.07;4.30;;;11.20;99.90;;;;;;5112229;28;20556;-62
2023/03/22 10:02:41;;;;;;;8.75;4.00;;;11.20;99.90;;;;;;5146052;27;20051;-62
2023/03/22 10:05:20;;;;;;;8.65;4.60;;;11.10;99.90;;;;;;5113100;28;20043;-63
2023/03/22 10:08:08;;;;;;;7.95;4.15;;;11.00;99.90;;;;;;5114041;28;20051;-63
2023/03/22 10:10:36;;;;;;;11.88;3.97;;;10.90;99.90;;;;;;5112706;28;20055;-63
2023/03/22 10:13:13;;;;;;;11.85;3.88;;;10.80;99.90;;;;;;5114057;28;20292;-63
2023/03/22 10:15:44;;;;;;;11.05;3.78;;;10.80;99.90;;;;;;5113314;28;20520;-62
2023/03/22 10:18:17;;;;;;;11.23;4.68;;;10.70;99.90;;;;;;5114008;28;20465;-62
2023/03/22 10:20:49;;;;;;;7.07;4.60;;;10.60;99.90;;;;;;5114105;28;20055;-63
2023/03/22 10:23:20;;;;;;;11.40;4.10;;;10.60;99.90;;;;;;5113388;28;20047;-63
2023/03/22 10:25:47;;;;;;;10.45;4.68;;;10.50;99.90;;;;;;5113002;28;20380;-62
2023/03/22 10:28:19;;;;;;;12.00;4.20;;;10.40;99.90;;;;;;5113757;28;20043;-63
2023/03/22 10:30:53;;;;;;;5.75;3.70;;;10.40;99.90;;;;;;5112230;28;20043;-62
2023/03/22 10:33:28;;;;;;;13.30;4.40;;;10.30;99.90;;;;;;5112527;28;20036;-63
2023/03/22 10:35:55;;;;;;;7.20;3.90;;;10.30;99.90;;;;;;5112884;28;20047;-63
2023/03/22 10:38:26;;;;;;;7.82;4.13;;;10.20;99.90;;;;;;5111973;28;20054;-63
2023/03/22 10:40:53;;;;;;;;;;;10.20;99.90;;;;;;5113210;28;20117;-63
2023/03/22 10:43:25;;;;;;;12.75;4.32;;;10.20;99.90;;;;;;5113666;28;19919;-63
2023/03/22 10:45:55;;;;;;;9.05;4.03;;;10.10;99.90;;;;;;5112199;28;20051;-63
2023/03/22 10:48:28;;;;;;;9.48;4.72;;;10.00;99.90;;;;;;5111566;28;20048;-63
2023/03/22 10:50:58;;;;;;;10.88;4.32;;;10.00;99.90;;;;;;5108971;28;20055;-62
2023/03/22 10:53:32;;;;;;;10.90;4.63;;;10.00;99.90;;;;;;5114090;28;20092;-63
2023/03/22 10:55:59;;;;;;;12.93;5.20;;;10.00;99.90;;;;;;5113364;28;20499;-63
2023/03/22 10:58:30;;;;;;;7.03;4.28;;;10.00;99.90;;;;;;5111656;28;20109;-63
2023/03/22 11:00:59;;;;;;;;;;;10.00;99.90;;;;;;5112781;28;20054;-62
2023/03/22 11:03:29;;;;;;;14.18;5.22;;;10.00;99.90;;;;;;5113000;28;20276;-63
2023/03/22 11:06:01;;;;;;;14.90;4.35;;;10.00;99.90;;;;;;5112685;28;20449;-62
2023/03/22 11:08:28;;;;;;;8.55;4.32;;;10.00;99.90;;;;;;5113165;28;20052;-63
2023/03/22 11:10:59;;;;;;;8.18;4.30;;;10.00;99.90;;;;;;5112058;28;20047;-62
2023/03/22 11:13:26;;;;;;;9.45;4.72;;;10.00;99.90;;;;;;5112528;28;20058;-63
2023/03/22 11:16:00;;;;;;;9.50;4.30;;;10.00;99.90;;;;;;5111782;28;20092;-63
2023/03/22 11:18:31;;;;;;;13.75;5.28;;;10.10;99.90;;;;;;5109556;28;20096;-63
2023/03/22 11:21:00;;;;;;;11.30;5.05;;;10.10;99.90;;;;;;5111157;28;20083;-64
2023/03/22 11:23:31;;;;;;;9.02;4.57;;;10.10;99.90;;;;;;5112824;28;20122;-63
2023/03/22 11:26:02;;;;;;;11.52;5.00;;;10.10;99.90;;;;;;5111997;28;20039;-63
2023/03/22 11:28:35;;;;;;;6.50;3.90;;;10.10;99.90;;;;;;5112357;28;20044;-63
2023/03/22 11:31:07;;;;;;;10.70;4.35;;;10.10;99.90;;;;;;5111941;28;20085;-64
2023/03/22 11:33:35;;;;;;;6.53;3.65;;;10.20;99.90;;;;;;5112269;28;20129;-63
2023/03/22 11:36:14;;;;;;;6.75;3.92;;;10.20;99.90;;;;;;5112870;28;20373;-63
2023/03/22 11:38:43;;;;;;;10.60;4.03;;;10.20;99.90;;;;;;5112441;27;20088;-63
2023/03/22 11:41:21;;;;;;;7.70;4.00;;;10.20;99.90;;;;;;5111188;28;20043;-63
2023/03/22 11:43:52;;;;;;;8.07;4.47;;;10.30;99.90;;;;;;5112783;28;20048;-63
2023/03/22 11:46:21;;;;;;;5.68;3.80;;;10.30;99.90;;;;;;5111722;28;20048;-63
2023/03/22 11:48:51;;;;;;;8.50;4.07;;;10.30;99.90;;;;;;5111912;28;20051;-63
2023/03/22 11:51:28;;;;;;;7.40;3.58;;;10.30;99.90;;;;;;5111691;28;20518;-63
2023/03/22 11:54:02;;;;;;;9.18;4.47;;;10.30;99.90;;;;;;5112892;28;20415;-63
2023/03/22 11:56:30;;;;;;;7.65;3.92;;;10.40;99.90;;;;;;5111317;28;20132;-63
2023/03/22 11:58:59;;;;;;;7.82;3.85;;;10.40;99.90;;;;;;5112460;28;20470;-63
2023/03/22 12:01:41;;;;;;;8.90;4.00;;;10.40;99.90;;;;;;5112625;28;20043;-63
2023/03/22 12:04:13;;;;;;;7.68;4.53;;;10.40;99.90;;;;;;5114407;28;20530;-63
2023/03/22 12:06:41;;;;;;;8.50;4.15;;;10.40;99.90;;;;;;5116754;28;20400;-63
2023/03/22 12:09:21;;;;;;;6.40;3.88;;;10.40;99.90;;;;;;5115890;28;20051;-63
2023/03/22 12:11:51;;;;;;;7.28;3.75;;;10.40;99.90;;;;;;5115110;28;20514;-61
2023/03/22 12:14:24;;;;;;;7.47;3.40;;;10.40;99.90;;;;;;5115626;28;20097;-63
2023/03/22 12:16:57;;;;;;;5.85;3.78;;;10.40;99.90;;;;;;5114896;28;20085;-63
2023/03/22 12:19:37;;;;;;;6.47;3.30;;;10.50;99.90;;;;;;5114972;28;20055;-62
2023/03/22 12:22:10;;;;;;;6.75;3.33;;;10.50;99.90;;;;;;5115685;28;20464;-62
2023/03/22 12:24:37;;;;;;;5.13;3.40;;;10.50;99.90;;;;;;5114391;28;20092;-63
2023/03/22 12:27:15;;;;;;;11.32;4.30;;;10.60;99.90;;;;;;5113110;28;20506;-63
2023/03/22 12:29:47;;;;;;;7.10;3.92;;;10.50;99.90;;;;;;5113534;28;20083;-62
2023/03/22 12:32:21;;;;;;;8.52;4.05;;;10.50;99.90;;;;;;5115309;28;20047;-62
2023/03/22 12:34:50;;;;;;;8.13;3.85;;;10.60;99.90;;;;;;5116104;28;20540;-63
2023/03/22 12:37:22;;;;;;;7.72;4.38;;;10.60;99.90;;;;;;5114403;28;20108;-62
2023/03/22 12:39:53;;;;;;;9.45;4.40;;;10.60;99.90;;;;;;5114856;28;20113;-62
2023/03/22 12:42:23;;;;;;;7.93;4.40;;;10.50;99.90;;;;;;5114225;28;20044;-63
2023/03/22 12:44:54;;;;;;;10.40;4.57;;;10.50;99.90;;;;;;5115339;28;20407;-63
2023/03/22 12:47:27;;;;;;;8.80;4.45;;;10.40;99.90;;;;;;5115781;28;20645;-62
2023/03/22 12:49:59;;;;;;;8.80;4.55;;;10.30;99.90;;;;;;5116260;28;20104;-63
2023/03/22 12:52:33;;;;;;;7.63;4.13;;;10.20;99.90;;;;;;5146908;27;20047;-63
2023/03/22 12:55:01;;;;;;;11.80;3.97;;;10.20;99.90;;;;;;5114399;28;20044;-63
2023/03/22 12:57:28;;;;;;;8.73;4.28;;;10.20;99.90;;;;;;5115781;28;20047;-63
2023/03/22 12:59:59;;;;;;;7.03;4.07;;;10.10;99.90;;;;;;5114203;28;20088;-63
2023/03/22 13:02:31;;;;;;;9.68;4.78;;;10.10;99.90;;;;;;5112928;28;20039;-62